Time;durP1;ratioP1;P1;durP2;ratioP2;P2;SDS_P1;SDS_P2;PMS_P1;PMS_P2;Temp;Humidity;BMP_temperature;BMP_pressure;BME280_temperature;BME280_humidity;BME280_pressure;Samples;Min_cycle;Max_cycle;Signal;HPM_P1;HPM_P2
2021/11/09 00:01:17;;;;;;;;;;;14.10;99.90;;;;;;2073453;28;1743;-59
2021/11/09 00:02:36;;;;;;;;;;;14.10;99.90;;;;;;2079878;28;1188;-60
2021/11/09 00:04:05;;;;;;;;;;;14.10;99.90;;;;;;2081098;28;1067;-60
2021/11/09 00:05:27;;;;;;;;;;;14.10;99.90;;;;;;2057568;28;727;-60
2021/11/09 00:06:54;;;;;;;;;;;14.10;99.90;;;;;;2063738;28;782;-61
2021/11/09 00:08:20;;;;;;;;;;;14.10;99.90;;;;;;2072448;28;726;-61
2021/11/09 00:09:59;;;;;;;;;;;14.10;99.90;;;;;;2072740;28;775;-60
2021/11/09 00:11:18;;;;;;;;;;;14.10;99.90;;;;;;2071090;28;1308;-60
2021/11/09 00:12:39;;;;;;;;;;;14.10;99.90;;;;;;2071451;28;757;-60
2021/11/09 00:13:58;;;;;;;;;;;14.10;99.90;;;;;;2070020;28;1618;-60
2021/11/09 00:15:19;;;;;;;;;;;14.10;99.90;;;;;;2066319;28;793;-59
2021/11/09 00:16:38;;;;;;;;;;;14.10;99.90;;;;;;2063198;28;774;-58
2021/11/09 00:18:00;;;;;;;;;;;14.10;99.90;;;;;;2063026;28;848;-60
2021/11/09 00:19:19;;;;;;;;;;;14.10;99.90;;;;;;2071501;28;1952;-60
2021/11/09 00:20:38;;;;;;;;;;;14.10;99.90;;;;;;2073891;28;1144;-59
2021/11/09 00:21:58;;;;;;;;;;;14.10;99.90;;;;;;2073390;28;758;-60
2021/11/09 00:23:17;;;;;;;;;;;14.10;99.90;;;;;;2062490;28;766;-60
2021/11/09 00:24:36;;;;;;;;;;;14.10;99.90;;;;;;2065264;28;798;-61
2021/11/09 00:25:56;;;;;;;;;;;14.10;99.90;;;;;;2065535;28;698;-59
2021/11/09 00:27:15;;;;;;;;;;;14.10;99.90;;;;;;2065585;28;728;-58
2021/11/09 00:28:34;;;;;;;;;;;14.10;99.90;;;;;;2064612;28;1914;-59
2021/11/09 00:29:53;;;;;;;;;;;14.10;99.90;;;;;;2070564;28;781;-59
2021/11/09 00:31:13;;;;;;;;;;;14.10;99.90;;;;;;2073699;28;1372;-59
2021/11/09 00:32:32;;;;;;;;;;;14.00;99.90;;;;;;2070698;28;1237;-59
2021/11/09 00:33:51;;;;;;;;;;;14.00;99.90;;;;;;2063226;28;949;-59
2021/11/09 00:35:11;;;;;;;;;;;14.00;99.90;;;;;;2082116;28;716;-59
2021/11/09 00:36:30;;;;;;;;;;;14.00;99.90;;;;;;2081863;28;741;-59
2021/11/09 00:37:49;;;;;;;;;;;14.00;99.90;;;;;;2080441;28;793;-59
2021/11/09 00:39:12;;;;;;;;;;;14.00;99.90;;;;;;2073283;28;755;-59
2021/11/09 00:40:32;;;;;;;;;;;14.00;99.90;;;;;;2079367;28;730;-58
2021/11/09 00:41:52;;;;;;;;;;;14.00;99.90;;;;;;2065200;28;1761;-59
2021/11/09 00:43:11;;;;;;;;;;;14.00;99.90;;;;;;2062260;28;714;-58
2021/11/09 00:44:31;;;;;;;;;;;14.00;99.90;;;;;;2065896;28;778;-59
2021/11/09 00:45:50;;;;;;;;;;;14.00;99.90;;;;;;2065112;28;726;-59
2021/11/09 00:47:09;;;;;;;;;;;14.00;99.90;;;;;;2057115;28;707;-59
2021/11/09 00:48:28;;;;;;;;;;;14.00;99.90;;;;;;2069006;28;1246;-58
2021/11/09 00:49:47;;;;;;;;;;;14.00;99.90;;;;;;2073810;28;1508;-59
2021/11/09 00:51:06;;;;;;;;;;;14.00;99.90;;;;;;2073192;28;1358;-59
2021/11/09 00:52:26;;;;;;;;;;;14.00;99.90;;;;;;2073128;28;715;-60
2021/11/09 00:53:45;;;;;;;;;;;14.00;99.90;;;;;;2073100;28;792;-59
2021/11/09 00:55:05;;;;;;;;;;;13.90;99.90;;;;;;2073688;28;1019;-59
2021/11/09 00:56:24;;;;;;;;;;;14.00;99.90;;;;;;2064536;28;701;-60
2021/11/09 00:57:44;;;;;;;;;;;14.00;99.90;;;;;;2065269;28;709;-59
2021/11/09 00:59:04;;;;;;;;;;;14.00;99.90;;;;;;2064999;28;719;-59
2021/11/09 01:00:24;;;;;;;;;;;13.90;99.90;;;;;;2070198;28;1419;-60
2021/11/09 01:01:43;;;;;;;;;;;13.90;99.90;;;;;;2073190;28;1054;-60
2021/11/09 01:03:03;;;;;;;;;;;13.90;99.90;;;;;;2070529;28;1281;-59
2021/11/09 01:04:22;;;;;;;;;;;13.90;99.90;;;;;;2064315;28;989;-59
2021/11/09 01:05:42;;;;;;;;;;;13.90;99.90;;;;;;2066537;28;769;-59
2021/11/09 01:07:01;;;;;;;;;;;13.90;99.90;;;;;;2074793;28;882;-59
2021/11/09 01:08:20;;;;;;;;;;;13.90;99.90;;;;;;2080431;28;726;-60
2021/11/09 01:09:39;;;;;;;;;;;13.90;99.90;;;;;;2068410;28;1554;-59
2021/11/09 01:10:59;;;;;;;;;;;13.90;99.90;;;;;;2061550;28;1326;-60
2021/11/09 01:12:18;;;;;;;;;;;13.90;99.90;;;;;;2062544;28;725;-59
2021/11/09 01:13:37;;;;;;;;;;;13.90;99.90;;;;;;2064462;28;800;-59
2021/11/09 01:14:57;;;;;;;;;;;13.90;99.90;;;;;;2062393;28;717;-59
2021/11/09 01:16:17;;;;;;;;;;;13.90;99.90;;;;;;2062964;28;764;-59
2021/11/09 01:17:36;;;;;;;;;;;13.90;99.90;;;;;;2071370;28;730;-59
2021/11/09 01:18:56;;;;;;;;;;;13.90;99.90;;;;;;2063283;28;738;-59
2021/11/09 01:20:16;;;;;;;;;;;13.90;99.90;;;;;;2062903;28;722;-59
2021/11/09 01:21:35;;;;;;;;;;;13.90;99.90;;;;;;2061785;28;1325;-59
2021/11/09 01:22:55;;;;;;;;;;;13.90;99.90;;;;;;2068926;28;1542;-59
2021/11/09 01:24:15;;;;;;;;;;;13.90;99.90;;;;;;2065433;28;703;-58
2021/11/09 01:25:34;;;;;;;;;;;13.90;99.90;;;;;;2065431;28;766;-59
2021/11/09 01:26:53;;;;;;;;;;;13.90;99.90;;;;;;2056690;28;757;-57
2021/11/09 01:28:13;;;;;;;;;;;13.90;99.90;;;;;;2069349;28;1802;-59
2021/11/09 01:29:32;;;;;;;;;;;13.90;99.90;;;;;;2072683;28;1978;-59
2021/11/09 01:30:51;;;;;;;;;;;13.90;99.90;;;;;;2064799;28;1442;-59
2021/11/09 01:32:10;;;;;;;;;;;13.90;99.90;;;;;;2068399;28;1199;-59
2021/11/09 01:33:30;;;;;;;;;;;13.80;99.90;;;;;;2072192;28;1152;-59
2021/11/09 01:34:49;;;;;;;;;;;13.90;99.90;;;;;;2073479;28;720;-59
2021/11/09 01:36:08;;;;;;;;;;;13.80;99.90;;;;;;2073238;28;694;-59
2021/11/09 01:37:27;;;;;;;;;;;13.80;99.90;;;;;;2072058;28;1585;-59
2021/11/09 01:38:47;;;;;;;;;;;13.90;99.90;;;;;;2072394;28;757;-59
2021/11/09 01:40:07;;;;;;;;;;;13.80;99.90;;;;;;2073325;28;779;-60
2021/11/09 01:41:26;;;;;;;;;;;13.80;99.90;;;;;;2073474;28;1392;-59
2021/11/09 01:42:45;;;;;;;;;;;13.90;99.90;;;;;;2072636;28;710;-59
2021/11/09 01:44:05;;;;;;;;;;;13.80;99.90;;;;;;2072699;28;831;-59
2021/11/09 01:45:24;;;;;;;;;;;13.80;99.90;;;;;;2072551;28;1902;-59
2021/11/09 01:46:44;;;;;;;;;;;13.80;99.90;;;;;;2074772;28;1347;-59
2021/11/09 01:48:04;;;;;;;;;;;13.80;99.90;;;;;;2073382;28;719;-59
2021/11/09 01:49:23;;;;;;;;;;;13.80;99.90;;;;;;2073328;28;1906;-59
2021/11/09 01:50:43;;;;;;;;;;;13.80;99.90;;;;;;2069969;28;1913;-59
2021/11/09 01:52:02;;;;;;;;;;;13.80;99.90;;;;;;2065511;28;730;-60
2021/11/09 01:53:21;;;;;;;;;;;13.80;99.90;;;;;;2065262;28;738;-59
2021/11/09 01:54:40;;;;;;;;;;;13.80;99.90;;;;;;2056866;28;737;-60
2021/11/09 01:56:02;;;;;;;;;;;13.80;99.90;;;;;;2062449;28;1253;-60
2021/11/09 01:57:21;;;;;;;;;;;13.80;99.90;;;;;;2075505;28;1272;-62
2021/11/09 01:58:40;;;;;;;;;;;13.80;99.90;;;;;;2067639;28;1412;-59
2021/11/09 02:00:03;;;;;;;;;;;13.80;99.90;;;;;;2055401;28;1450;-62
2021/11/09 02:01:34;;;;;;;;;;;13.80;99.90;;;;;;2065861;28;1445;-63
2021/11/09 02:02:53;;;;;;;;;;;13.80;99.90;;;;;;2073261;28;1365;-56
2021/11/09 02:04:12;;;;;;;;;;;13.80;99.90;;;;;;2073844;28;1488;-62
2021/11/09 02:05:32;;;;;;;;;;;13.80;99.90;;;;;;2078789;28;1413;-59
2021/11/09 02:06:51;;;;;;;;;;;13.80;99.90;;;;;;2068481;28;1336;-62
2021/11/09 02:08:10;;;;;;;;;;;13.80;99.90;;;;;;2075847;28;1155;-60
2021/11/09 02:09:29;;;;;;;;;;;13.80;99.90;;;;;;2063988;28;1910;-63
2021/11/09 02:10:48;;;;;;;;;;;13.80;99.90;;;;;;2059842;28;1415;-65
2021/11/09 02:12:07;;;;;;;;;;;13.80;99.90;;;;;;2072091;28;1450;-61
2021/11/09 02:13:26;;;;;;;;;;;13.80;99.90;;;;;;2070040;28;1210;-60
2021/11/09 02:14:46;;;;;;;;;;;13.80;99.90;;;;;;2073031;28;1226;-61
2021/11/09 02:16:05;;;;;;;;;;;13.70;99.90;;;;;;2071468;28;1349;-59
2021/11/09 02:17:24;;;;;;;;;;;13.70;99.90;;;;;;2071394;28;1000;-64
2021/11/09 02:18:44;;;;;;;;;;;13.70;99.90;;;;;;2062369;28;1384;-62
2021/11/09 02:20:03;;;;;;;;;;;13.70;99.90;;;;;;2056177;28;1374;-62
2021/11/09 02:21:23;;;;;;;;;;;13.70;99.90;;;;;;2065715;28;1449;-62
2021/11/09 02:22:42;;;;;;;;;;;13.70;99.90;;;;;;2056239;28;1161;-64
2021/11/09 02:24:02;;;;;;;;;;;13.70;99.90;;;;;;2065007;28;1339;-62
2021/11/09 02:25:21;;;;;;;;;;;13.70;99.90;;;;;;2055149;28;1463;-62
2021/11/09 02:26:40;;;;;;;;;;;13.70;99.90;;;;;;2065431;28;1382;-60
2021/11/09 02:28:00;;;;;;;;;;;13.70;99.90;;;;;;2073886;28;1260;-61
2021/11/09 02:29:19;;;;;;;;;;;13.70;99.90;;;;;;2072803;28;1926;-60
2021/11/09 02:30:39;;;;;;;;;;;13.70;99.90;;;;;;2069978;28;1381;-62
2021/11/09 02:31:58;;;;;;;;;;;13.70;99.90;;;;;;2073887;28;1134;-60
2021/11/09 02:33:18;;;;;;;;;;;13.70;99.90;;;;;;2056680;28;1186;-61
2021/11/09 02:34:37;;;;;;;;;;;13.70;99.90;;;;;;2067317;28;1147;-62
2021/11/09 02:35:56;;;;;;;;;;;13.70;99.90;;;;;;2077174;28;1625;-60
2021/11/09 02:37:16;;;;;;;;;;;13.70;99.90;;;;;;2066477;28;1476;-61
2021/11/09 02:38:36;;;;;;;;;;;13.70;99.90;;;;;;2071827;28;1355;-62
2021/11/09 02:39:55;;;;;;;;;;;13.70;99.90;;;;;;2069233;28;1314;-60
2021/11/09 02:41:14;;;;;;;;;;;13.70;99.90;;;;;;2069393;28;1432;-62
2021/11/09 02:42:34;;;;;;;;;;;13.70;99.90;;;;;;2065886;28;1260;-63
2021/11/09 02:43:57;;;;;;;;;;;13.70;99.90;;;;;;2073076;28;1192;-61
2021/11/09 02:45:21;;;;;;;;;;;13.70;99.90;;;;;;2057486;28;1378;-61
2021/11/09 02:46:50;;;;;;;;;;;13.70;99.90;;;;;;2068028;28;1428;-63
2021/11/09 02:48:14;;;;;;;;;;;13.70;99.90;;;;;;2072024;28;1277;-64
2021/11/09 02:49:54;;;;;;;;;;;13.70;99.90;;;;;;2070789;28;1914;-64
2021/11/09 02:51:19;;;;;;;;;;;13.70;99.90;;;;;;2072356;28;1397;-63
2021/11/09 02:52:46;;;;;;;;;;;13.60;99.90;;;;;;2073094;28;1206;-62
2021/11/09 02:54:11;;;;;;;;;;;13.60;99.90;;;;;;2071742;28;1259;-60
2021/11/09 02:55:36;;;;;;;;;;;13.60;99.90;;;;;;2075246;28;1731;-62
2021/11/09 02:57:04;;;;;;;;;;;13.60;99.90;;;;;;2059579;28;1117;-61
2021/11/09 02:59:55;;;;;;;;;;;13.60;99.90;;;;;;2062445;28;1505;-61
2021/11/09 03:01:21;;;;;;;;;;;13.70;99.90;;;;;;2063080;28;1372;-61
2021/11/09 03:02:47;;;;;;;;;;;13.60;99.90;;;;;;2073652;28;1365;-61
2021/11/09 03:04:26;;;;;;;;;;;13.60;99.90;;;;;;2075376;28;1268;-63
2021/11/09 03:08:33;;;;;;;;;;;13.60;99.90;;;;;;2075003;28;1065;-61
2021/11/09 03:10:16;;;;;;;;;;;13.60;99.90;;;;;;2070218;28;1221;-61
2021/11/09 03:11:36;;;;;;;;;;;13.60;99.90;;;;;;2070893;28;1467;-59
2021/11/09 03:12:55;;;;;;;;;;;13.60;99.90;;;;;;2074719;28;1156;-59
2021/11/09 03:14:15;;;;;;;;;;;13.60;99.90;;;;;;2076758;28;1270;-61
2021/11/09 03:15:35;;;;;;;;;;;13.60;99.90;;;;;;2076510;28;1335;-63
2021/11/09 03:16:57;;;;;;;;;;;13.60;99.90;;;;;;2074637;28;1098;-61
2021/11/09 03:18:20;;;;;;;;;;;13.60;99.90;;;;;;2077286;28;1303;-62
2021/11/09 03:19:48;;;;;;;;;;;13.60;99.90;;;;;;2074737;28;1572;-60
2021/11/09 03:40:34;;;;;;;;;;;13.60;99.90;;;;;;2068514;28;1342;-62
2021/11/09 03:45:13;;;;;;;;;;;13.60;99.90;;;;;;2072673;28;1602;-60
2021/11/09 03:46:32;;;;;;;;;;;13.60;99.90;;;;;;2071160;28;1275;-61
2021/11/09 03:47:54;;;;;;;;;;;13.60;99.90;;;;;;2073113;28;1190;-62
2021/11/09 03:49:14;;;;;;;;;;;13.60;99.90;;;;;;2064744;28;1902;-59
2021/11/09 03:50:34;;;;;;;;;;;13.60;99.90;;;;;;2053558;28;1389;-59
2021/11/09 03:51:54;;;;;;;;;;;13.60;99.90;;;;;;2062072;28;1321;-57
2021/11/09 03:53:19;;;;;;;;;;;13.60;99.90;;;;;;2069823;28;1171;-63
2021/11/09 03:54:38;;;;;;;;;;;13.60;99.90;;;;;;2079077;28;1052;-59
2021/11/09 03:56:10;;;;;;;;;;;13.60;99.90;;;;;;2076489;28;1351;-62
2021/11/09 03:57:44;;;;;;;;;;;13.60;99.90;;;;;;2065047;28;1151;-61
2021/11/09 03:59:07;;;;;;;;;;;13.60;99.90;;;;;;2072533;28;1385;-62
2021/11/09 04:04:44;;;;;;;;;;;13.60;99.90;;;;;;2065426;28;1441;-62
2021/11/09 04:11:54;;;;;;;;;;;13.50;99.90;;;;;;2058213;28;1478;-60
2021/11/09 04:14:31;;;;;;;;;;;13.50;99.90;;;;;;2063273;28;1184;-62
2021/11/09 04:17:25;;;;;;;;;;;13.60;99.90;;;;;;2064679;28;1270;-63
2021/11/09 04:26:51;;;;;;;;;;;13.50;99.90;;;;;;2051496;28;1049;-62
2021/11/09 04:45:30;;;;;;;;;;;13.50;99.90;;;;;;2070101;28;1161;-61
2021/11/09 05:01:12;;;;;;;;;;;13.50;99.90;;;;;;2070554;28;1408;-61
2021/11/09 05:02:50;;;;;;;;;;;13.50;99.90;;;;;;2062555;28;1440;-60
2021/11/09 05:09:25;;;;;;;;;;;13.40;99.90;;;;;;2062115;28;1902;-60
2021/11/09 05:10:46;;;;;;;;;;;13.50;99.90;;;;;;2059867;28;1487;-62
2021/11/09 05:12:05;;;;;;;;;;;13.40;99.90;;;;;;2059878;28;1267;-60
2021/11/09 05:13:24;;;;;;;;;;;13.40;99.90;;;;;;2068076;28;1437;-62
2021/11/09 05:14:44;;;;;;;;;;;13.40;99.90;;;;;;2063340;28;1254;-63
2021/11/09 05:16:03;;;;;;;;;;;13.40;99.90;;;;;;2069651;28;1217;-61
2021/11/09 05:17:22;;;;;;;;;;;13.40;99.90;;;;;;2071539;28;1346;-59
2021/11/09 05:18:41;;;;;;;;;;;13.40;99.90;;;;;;2071895;28;1330;-62
2021/11/09 05:20:01;;;;;;;;;;;13.40;99.90;;;;;;2067517;28;1300;-61
2021/11/09 05:21:20;;;;;;;;;;;13.40;99.90;;;;;;2058700;28;1506;-64
2021/11/09 05:22:39;;;;;;;;;;;13.40;99.90;;;;;;2070551;28;1256;-60
2021/11/09 05:23:59;;;;;;;;;;;13.40;99.90;;;;;;2063105;28;1440;-62
2021/11/09 05:25:18;;;;;;;;;;;13.40;99.90;;;;;;2068150;28;1456;-61
2021/11/09 05:26:37;;;;;;;;;;;13.40;99.90;;;;;;2072160;28;1188;-62
2021/11/09 05:27:56;;;;;;;;;;;13.40;99.90;;;;;;2071328;28;1271;-64
2021/11/09 05:29:16;;;;;;;;;;;13.40;99.90;;;;;;2063500;28;1964;-61
2021/11/09 05:30:36;;;;;;;;;;;13.40;99.90;;;;;;2057725;28;1490;-62
2021/11/09 05:31:58;;;;;;;;;;;13.40;99.90;;;;;;2059900;28;1389;-64
2021/11/09 05:33:18;;;;;;;;;;;13.40;99.90;;;;;;2069547;28;1204;-61
2021/11/09 05:34:37;;;;;;;;;;;13.40;99.90;;;;;;2072709;28;1095;-62
2021/11/09 05:35:57;;;;;;;;;;;13.40;99.90;;;;;;2063397;28;1304;-61
2021/11/09 05:37:21;;;;;;;;;;;13.40;99.90;;;;;;2064243;28;1220;-61
2021/11/09 05:38:59;;;;;;;;;;;13.40;99.90;;;;;;2097995;27;1183;-59
2021/11/09 05:40:21;;;;;;;;;;;13.40;99.90;;;;;;2094815;28;1229;-60
2021/11/09 05:41:41;;;;;;;;;;;13.40;99.90;;;;;;2102089;28;1450;-61
2021/11/09 05:43:01;;;;;;;;;;;13.40;99.90;;;;;;2090488;28;1097;-58
2021/11/09 05:44:20;;;;;;;;;;;13.40;99.90;;;;;;2088819;28;1515;-59
2021/11/09 05:45:39;;;;;;;;;;;13.40;99.90;;;;;;2086772;28;1568;-61
2021/11/09 05:46:59;;;;;;;;;;;13.40;99.90;;;;;;2086266;28;1638;-62
2021/11/09 05:48:18;;;;;;;;;;;13.40;99.90;;;;;;2078399;28;1376;-62
2021/11/09 05:49:37;;;;;;;;;;;13.40;99.90;;;;;;2084414;28;1185;-60
2021/11/09 05:50:56;;;;;;;;;;;13.40;99.90;;;;;;2076345;28;1384;-62
2021/11/09 05:52:15;;;;;;;;;;;13.40;99.90;;;;;;2085739;28;1356;-62
2021/11/09 05:53:35;;;;;;;;;;;13.40;99.90;;;;;;2082945;28;1640;-64
2021/11/09 05:54:54;;;;;;;;;;;13.40;99.90;;;;;;2087219;28;1652;-61
2021/11/09 05:56:13;;;;;;;;;;;13.40;99.90;;;;;;2086334;28;1007;-61
2021/11/09 05:57:33;;;;;;;;;;;13.40;99.90;;;;;;2085979;28;1144;-60
2021/11/09 05:58:52;;;;;;;;;;;13.30;99.90;;;;;;2090655;28;1151;-62
2021/11/09 06:00:11;;;;;;;;;;;13.40;99.90;;;;;;2085996;28;1100;-61
2021/11/09 06:01:33;;;;;;;;;;;13.30;99.90;;;;;;2084005;28;1298;-62
2021/11/09 06:02:53;;;;;;;;;;;13.30;99.90;;;;;;2089615;28;1298;-62
2021/11/09 06:04:12;;;;;;;;;;;13.30;99.90;;;;;;2088322;28;1165;-63
2021/11/09 06:05:31;;;;;;;;;;;13.30;99.90;;;;;;2077972;28;1658;-63
2021/11/09 06:06:50;;;;;;;;;;;13.30;99.90;;;;;;2083494;28;1599;-62
2021/11/09 06:08:10;;;;;;;;;;;13.30;99.90;;;;;;2088811;28;1349;-59
2021/11/09 06:09:29;;;;;;;;;;;13.30;99.90;;;;;;2091980;28;1388;-63
2021/11/09 06:10:48;;;;;;;;;;;13.30;99.90;;;;;;2084971;28;1575;-62
2021/11/09 06:12:07;;;;;;;;;;;13.30;99.90;;;;;;2104604;28;1528;-62
2021/11/09 06:13:26;;;;;;;;;;;13.30;99.90;;;;;;2094302;28;1630;-62
2021/11/09 06:14:45;;;;;;;;;;;13.30;99.90;;;;;;2088674;28;1262;-62
2021/11/09 06:16:05;;;;;;;;;;;13.30;99.90;;;;;;2079107;28;1688;-61
2021/11/09 06:17:24;;;;;;;;;;;13.30;99.90;;;;;;2085465;28;1275;-63
2021/11/09 06:18:43;;;;;;;;;;;13.30;99.90;;;;;;2088732;28;1906;-63
2021/11/09 06:20:03;;;;;;;;;;;13.30;99.90;;;;;;2087940;28;1400;-63
2021/11/09 06:21:22;;;;;;;;;;;13.30;99.90;;;;;;2088867;28;1523;-63
2021/11/09 06:22:41;;;;;;;;;;;13.30;99.90;;;;;;2086992;28;1063;-64
2021/11/09 06:24:01;;;;;;;;;;;13.30;99.90;;;;;;2076503;28;1350;-62
2021/11/09 06:25:23;;;;;;;;;;;13.30;99.90;;;;;;2074613;28;1312;-63
2021/11/09 06:26:42;;;;;;;;;;;13.30;99.90;;;;;;2081274;28;1130;-62
2021/11/09 06:28:04;;;;;;;;;;;13.30;99.90;;;;;;2086833;28;1162;-65
2021/11/09 06:29:23;;;;;;;;;;;13.30;99.90;;;;;;2085659;28;1456;-59
2021/11/09 06:30:42;;;;;;;;;;;13.30;99.90;;;;;;2085242;28;1332;-60
2021/11/09 06:32:02;;;;;;;;;;;13.30;99.90;;;;;;2084588;28;1369;-63
2021/11/09 06:33:21;;;;;;;;;;;13.30;99.90;;;;;;2079559;28;1142;-61
2021/11/09 06:34:41;;;;;;;;;;;13.30;99.90;;;;;;2084814;28;1295;-63
2021/11/09 06:36:00;;;;;;;;;;;13.30;99.90;;;;;;2087652;28;1345;-62
2021/11/09 06:37:19;;;;;;;;;;;13.30;99.90;;;;;;2086159;28;1233;-62
2021/11/09 06:38:38;;;;;;;;;;;13.20;99.90;;;;;;2087697;28;1899;-60
2021/11/09 06:39:58;;;;;;;;;;;13.30;99.90;;;;;;2083928;28;1025;-60
2021/11/09 06:41:17;;;;;;;;;;;13.30;99.90;;;;;;2085609;28;1530;-60
2021/11/09 06:42:36;;;;;;;;;;;13.30;99.90;;;;;;2087899;28;1362;-59
2021/11/09 06:43:56;;;;;;;;;;;13.20;99.90;;;;;;2079674;28;1054;-61
2021/11/09 06:45:15;;;;;;;;;;;13.20;99.90;;;;;;2100029;28;1525;-64
2021/11/09 06:46:34;;;;;;;;;;;13.20;99.90;;;;;;2089773;28;1254;-62
2021/11/09 06:47:53;;;;;;;;;;;13.20;99.90;;;;;;2088549;28;986;-61
2021/11/09 06:49:12;;;;;;;;;;;13.20;99.90;;;;;;2102478;28;1066;-62
2021/11/09 06:50:32;;;;;;;;;;;13.20;99.90;;;;;;2086541;28;1403;-62
2021/11/09 06:51:52;;;;;;;;;;;13.30;99.90;;;;;;2088035;28;1231;-64
2021/11/09 06:53:11;;;;;;;;;;;13.20;99.90;;;;;;2084834;28;1321;-61
2021/11/09 06:54:30;;;;;;;;;;;13.30;99.90;;;;;;2081932;28;852;-63
2021/11/09 06:55:49;;;;;;;;;;;13.30;99.90;;;;;;2078296;28;1412;-60
2021/11/09 06:57:09;;;;;;;;;;;13.30;99.90;;;;;;2079467;28;1658;-63
2021/11/09 06:58:28;;;;;;;;;;;13.40;99.90;;;;;;2081233;28;1985;-61
2021/11/09 06:59:47;;;;;;;;;;;13.40;99.90;;;;;;2081961;28;1132;-59
2021/11/09 07:01:07;;;;;;;;;;;13.50;99.90;;;;;;2083678;28;1503;-59
2021/11/09 07:02:31;;;;;;;;;;;13.70;99.90;;;;;;2080674;28;1237;-62
2021/11/09 07:03:50;;;;;;;;;;;13.80;99.90;;;;;;2081658;28;1127;-64
2021/11/09 07:05:09;;;;;;;;;;;13.90;99.90;;;;;;2079621;28;1450;-63
2021/11/09 07:06:28;;;;;;;;;;;13.90;99.90;;;;;;2088755;28;1108;-62
2021/11/09 07:07:47;;;;;;;;;;;13.90;99.90;;;;;;2085779;28;1052;-62
2021/11/09 07:09:06;;;;;;;;;;;14.00;99.90;;;;;;2078862;28;1311;-60
2021/11/09 07:10:26;;;;;;;;;;;14.10;99.90;;;;;;2081398;28;1136;-62
2021/11/09 07:11:44;;;;;;;;;;;14.10;99.90;;;;;;2082128;28;1241;-63
2021/11/09 07:13:04;;;;;;;;;;;14.20;99.90;;;;;;2083307;28;1443;-63
2021/11/09 07:14:23;;;;;;;;;;;14.20;99.90;;;;;;2082102;28;1644;-62
2021/11/09 07:15:42;;;;;;;;;;;14.30;99.90;;;;;;2081709;28;1300;-61
2021/11/09 07:17:01;;;;;;;;;;;14.40;99.90;;;;;;2082179;28;1184;-62
2021/11/09 07:18:21;;;;;;;;;;;14.50;99.90;;;;;;2082147;28;1966;-63
2021/11/09 07:19:40;;;;;;;;;;;14.50;99.90;;;;;;2072832;28;1164;-62
2021/11/09 07:21:00;;;;;;;;;;;14.60;99.90;;;;;;2089366;28;1492;-60
2021/11/09 07:22:19;;;;;;;;;;;14.70;99.90;;;;;;2086739;28;1087;-63
2021/11/09 07:23:39;;;;;;;;;;;14.70;99.90;;;;;;2081344;28;1149;-62
2021/11/09 07:24:58;;;;;;;;;;;14.70;99.90;;;;;;2078995;28;1203;-60
2021/11/09 07:26:17;;;;;;;;;;;14.80;99.90;;;;;;2076674;28;1240;-62
2021/11/09 07:27:37;;;;;;;;;;;14.70;99.90;;;;;;2082551;28;965;-62
2021/11/09 07:28:57;;;;;;;;;;;14.80;99.90;;;;;;2082710;28;1085;-63
2021/11/09 07:30:16;;;;;;;;;;;14.70;99.90;;;;;;2080148;28;1289;-60
2021/11/09 07:31:36;;;;;;;;;;;14.70;99.90;;;;;;2081065;28;1392;-61
2021/11/09 07:32:56;;;;;;;;;;;14.70;99.90;;;;;;2081254;28;1034;-63
2021/11/09 07:34:15;;;;;;;;;;;14.70;99.90;;;;;;2072630;28;1193;-62
2021/11/09 07:35:35;;;;;;;;;;;14.70;99.90;;;;;;2079290;28;1576;-63
2021/11/09 07:36:55;;;;;;;;;;;14.80;99.90;;;;;;2080265;28;1239;-63
2021/11/09 07:38:15;;;;;;;;;;;14.80;99.90;;;;;;2100395;28;1971;-61
2021/11/09 07:39:35;;;;;;;;;;;14.80;99.90;;;;;;2090909;28;1484;-62
2021/11/09 07:40:54;;;;;;;;;;;14.90;99.90;;;;;;2083049;28;1473;-63
2021/11/09 07:42:14;;;;;;;;;;;15.00;99.90;;;;;;2076564;28;1576;-64
2021/11/09 07:43:33;;;;;;;;;;;15.00;99.90;;;;;;2083299;28;1208;-64
2021/11/09 07:44:53;;;;;;;;;;;15.10;99.90;;;;;;2081674;28;1308;-63
2021/11/09 07:46:12;;;;;;;;;;;15.10;99.60;;;;;;2080910;28;1380;-62
2021/11/09 07:47:31;;;;;;;;;;;15.20;99.20;;;;;;2074630;28;1478;-63
2021/11/09 07:48:51;;;;;;;;;;;15.20;98.70;;;;;;2078705;28;1123;-62
2021/11/09 07:50:10;;;;;;;;;;;15.30;98.40;;;;;;2080228;28;1241;-61
2021/11/09 07:51:29;;;;;;;;;;;15.40;98.00;;;;;;2082880;28;1401;-63
2021/11/09 07:52:52;;;;;;;;;;;15.40;97.50;;;;;;2078047;28;1441;-63
2021/11/09 07:54:11;;;;;;;;;;;15.50;97.20;;;;;;2086104;28;1252;-60
2021/11/09 07:55:38;;;;;;;;;;;15.60;97.10;;;;;;2083063;28;1555;-63
2021/11/09 07:57:02;;;;;;;;;;;15.70;96.50;;;;;;2097194;28;1163;-60
2021/11/09 07:58:32;;;;;;;;;;;15.70;96.10;;;;;;2098042;28;1902;-62
2021/11/09 07:59:55;;;;;;;;;;;15.70;95.70;;;;;;2085786;28;966;-61
2021/11/09 08:01:21;;;;;;;;;;;15.80;95.50;;;;;;2078448;28;1376;-62
2021/11/09 08:02:59;;;;;;;;;;;15.80;95.60;;;;;;2075029;28;1391;-66
2021/11/09 08:04:30;;;;;;;;;;;15.80;95.20;;;;;;2081385;28;1161;-64
2021/11/09 08:08:41;;;;;;;;;;;15.80;96.50;;;;;;2081593;28;1569;-64
2021/11/09 08:10:00;;;;;;;;;;;15.80;96.90;;;;;;2081140;28;1120;-65
2021/11/09 08:11:19;;;;;;;;;;;15.80;97.40;;;;;;2086393;28;1389;-62
2021/11/09 08:12:39;;;;;;;;;;;15.80;97.70;;;;;;2082303;28;1147;-64
2021/11/09 08:13:58;;;;;;;;;;;15.80;98.00;;;;;;2082790;28;1262;-64
2021/11/09 08:15:18;;;;;;;;;;;15.80;98.30;;;;;;2084749;28;1476;-64
2021/11/09 08:16:37;;;;;;;;;;;15.80;98.60;;;;;;2083252;28;1139;-66
2021/11/09 08:17:56;;;;;;;;;;;15.70;98.80;;;;;;2080816;28;1953;-65
2021/11/09 08:19:16;;;;;;;;;;;15.70;99.20;;;;;;2080675;28;1323;-64
2021/11/09 08:20:39;;;;;;;;;;;15.70;99.40;;;;;;2082927;28;1236;-64
2021/11/09 08:21:58;;;;;;;;;;;15.70;99.70;;;;;;2082102;28;1304;-63
2021/11/09 08:23:17;;;;;;;;;;;15.70;99.90;;;;;;2096820;28;1111;-64
2021/11/09 08:24:37;;;;;;;;;;;15.70;99.90;;;;;;2085932;28;1278;-65
2021/11/09 08:25:56;;;;;;;;;;;15.60;99.90;;;;;;2080461;28;1070;-64
2021/11/09 08:27:16;;;;;;;;;;;15.60;99.90;;;;;;2078820;28;1530;-65
2021/11/09 08:28:35;;;;;;;;;;;15.60;99.90;;;;;;2079521;28;1026;-66
2021/11/09 08:29:56;;;;;;;;;;;15.60;99.90;;;;;;2081473;28;1377;-65
2021/11/09 08:31:18;;;;;;;;;;;15.70;99.90;;;;;;2081186;28;1409;-64
2021/11/09 08:32:37;;;;;;;;;;;15.70;99.90;;;;;;2080816;28;1131;-64
2021/11/09 08:33:57;;;;;;;;;;;15.70;99.90;;;;;;2080883;28;1358;-64
2021/11/09 08:35:21;;;;;;;;;;;15.80;99.90;;;;;;2082656;28;1624;-63
2021/11/09 08:36:43;;;;;;;;;;;15.80;99.90;;;;;;2082353;28;1103;-63
2021/11/09 08:38:06;;;;;;;;;;;15.80;99.90;;;;;;2084051;28;1965;-63
2021/11/09 08:39:34;;;;;;;;;;;15.80;99.90;;;;;;2089052;28;1199;-63
2021/11/09 08:40:54;;;;;;;;;;;15.90;99.90;;;;;;2077489;28;1454;-64
2021/11/09 08:43:42;;;;;;;;;;;15.80;99.90;;;;;;2090130;28;1677;-63
2021/11/09 08:46:22;;;;;;;;;;;15.80;99.90;;;;;;2080385;28;1099;-63
2021/11/09 08:47:47;;;;;;;;;;;15.80;99.90;;;;;;2086756;28;785;-60
2021/11/09 08:49:08;;;;;;;;;;;15.70;99.90;;;;;;2090954;28;1511;-61
2021/11/09 08:50:27;;;;;;;;;;;15.70;99.90;;;;;;2090644;28;1628;-64
2021/11/09 08:51:47;;;;;;;;;;;15.70;99.90;;;;;;2080526;28;1367;-63
2021/11/09 08:53:15;;;;;;;;;;;15.60;99.00;;;;;;2084306;28;1214;-63
2021/11/09 08:54:35;;;;;;;;;;;15.60;98.60;;;;;;2089317;28;1096;-63
2021/11/09 09:04:50;;;;;;;;;;;15.50;99.50;;;;;;2089830;28;1495;-63
2021/11/09 09:06:09;;;;;;;;;;;15.40;99.40;;;;;;2086466;28;1008;-64
2021/11/09 09:07:29;;;;;;;;;;;15.40;99.60;;;;;;2081065;28;1295;-62
2021/11/09 09:08:48;;;;;;;;;;;15.40;99.70;;;;;;2077281;28;1128;-64
2021/11/09 09:10:08;;;;;;;;;;;15.40;99.80;;;;;;2084283;28;1218;-63
2021/11/09 09:11:28;;;;;;;;;;;15.40;99.90;;;;;;2073409;28;1416;-64
2021/11/09 09:12:47;;;;;;;;;;;15.30;99.90;;;;;;2083126;28;1242;-61
2021/11/09 09:14:06;;;;;;;;;;;15.30;99.90;;;;;;2078781;28;1394;-62
2021/11/09 09:15:25;;;;;;;;;;;15.30;99.90;;;;;;2080563;28;1339;-63
2021/11/09 09:16:46;;;;;;;;;;;15.30;99.90;;;;;;2083240;28;1251;-62
2021/11/09 09:18:06;;;;;;;;;;;15.30;99.90;;;;;;2086738;28;1922;-61
2021/11/09 09:19:30;;;;;;;;;;;15.30;99.90;;;;;;2090724;28;1115;-61
2021/11/09 09:20:53;;;;;;;;;;;15.20;99.90;;;;;;2081714;28;1523;-61
2021/11/09 09:22:14;;;;;;;;;;;15.20;99.90;;;;;;2085640;28;877;-62
2021/11/09 09:23:35;;;;;;;;;;;15.20;99.90;;;;;;2087787;28;1336;-60
2021/11/09 09:28:04;;;;;;;;;;;15.20;99.90;;;;;;2099100;28;1034;-60
2021/11/09 09:29:32;;;;;;;;;;;15.10;99.90;;;;;;2093213;28;937;-62
2021/11/09 09:31:28;;;;;;;;;;;15.10;99.90;;;;;;2081642;28;1434;-62
2021/11/09 09:33:19;;;;;;;;;;;15.10;99.90;;;;;;2090884;28;1042;-62
2021/11/09 09:56:18;;;;;;;;;;;14.90;99.90;;;;;;2079485;28;1501;-62
2021/11/09 09:57:35;;;;;;;;;;;14.90;99.90;;;;;;2096367;28;852;-59
2021/11/09 09:58:55;;;;;;;;;;;14.90;99.90;;;;;;2072619;28;1969;-64
2021/11/09 10:00:14;;;;;;;;;;;14.90;99.90;;;;;;2089074;28;1122;-64
2021/11/09 10:01:33;;;;;;;;;;;14.90;99.90;;;;;;2088512;28;2989;-65
2021/11/09 10:02:53;;;;;;;;;;;14.90;99.90;;;;;;2089328;28;1269;-62